Terminal Aerodrome Forecast
Issued by NWS

Home | Current Version | Previous Version | Text Only | Print | Product List | Glossary On
Versions: 1 2 3 4 5 6 7 8 9 10 11 12 13 14
000
FTUS43 KMQT 252300
TAFSAW
TAF
KSAW 252321Z 2600/2624 20008KT P6SM VCSH SCT025 BKN035
     FM260400 21007KT P6SM VCSH BKN015
     FM261000 22005KT 4SM BR BKN006
     FM261400 28007KT P6SM BKN015
     FM261600 34009KT P6SM SCT025
     FM262100 02010KT P6SM SCT100
      AMD LTD TO CLD VIS AND WIND 2602/2610=

USA.gov is the U.S. government's official web portal to all federal, state and local government web resources and services.